sensor_id;sensor_type;location;lat;lon;timestamp;pressure;altitude;pressure_sealevel;temperature;humidity
74544;BME280;63016;55.030;38.710;2022-10-30T00:00:20;98260.88;;;11.85;72.70
74544;BME280;63016;55.030;38.710;2022-10-30T00:02:46;98279.19;;;12.03;72.73
74544;BME280;63016;55.030;38.710;2022-10-30T00:05:13;98268.00;;;11.96;72.63
74544;BME280;63016;55.030;38.710;2022-10-30T00:07:38;98279.81;;;12.05;72.82
74544;BME280;63016;55.030;38.710;2022-10-30T00:10:05;98275.16;;;12.07;72.73
74544;BME280;63016;55.030;38.710;2022-10-30T00:12:30;98248.78;;;11.90;72.68
74544;BME280;63016;55.030;38.710;2022-10-30T00:14:56;98259.53;;;12.00;72.64
74544;BME280;63016;55.030;38.710;2022-10-30T00:17:21;98266.72;;;12.05;72.86
74544;BME280;63016;55.030;38.710;2022-10-30T00:19:47;98236.34;;;11.86;72.95
74544;BME280;63016;55.030;38.710;2022-10-30T00:22:13;98255.81;;;12.08;72.63
74544;BME280;63016;55.030;38.710;2022-10-30T00:24:38;98257.06;;;12.05;72.80
74544;BME280;63016;55.030;38.710;2022-10-30T00:27:04;98255.91;;;12.01;72.80
74544;BME280;63016;55.030;38.710;2022-10-30T00:29:29;98262.31;;;12.05;72.78
74544;BME280;63016;55.030;38.710;2022-10-30T00:31:54;98256.84;;;12.07;72.82
74544;BME280;63016;55.030;38.710;2022-10-30T00:34:20;98256.63;;;12.08;72.59
74544;BME280;63016;55.030;38.710;2022-10-30T00:36:45;98257.88;;;12.06;72.72
74544;BME280;63016;55.030;38.710;2022-10-30T00:39:11;98251.84;;;12.05;72.89
74544;BME280;63016;55.030;38.710;2022-10-30T00:41:36;98253.44;;;12.06;72.99
74544;BME280;63016;55.030;38.710;2022-10-30T00:44:35;98254.84;;;12.09;72.93
74544;BME280;63016;55.030;38.710;2022-10-30T00:47:05;98243.78;;;12.07;73.29
74544;BME280;63016;55.030;38.710;2022-10-30T00:49:37;98243.56;;;12.08;72.99
74544;BME280;63016;55.030;38.710;2022-10-30T00:52:08;98240.94;;;12.08;73.19
74544;BME280;63016;55.030;38.710;2022-10-30T00:54:35;98249.16;;;12.12;73.24
74544;BME280;63016;55.030;38.710;2022-10-30T00:57:02;98242.91;;;12.13;73.43
74544;BME280;63016;55.030;38.710;2022-10-30T00:59:32;98240.09;;;12.15;73.38
74544;BME280;63016;55.030;38.710;2022-10-30T01:02:01;98231.31;;;12.09;73.57
74544;BME280;63016;55.030;38.710;2022-10-30T01:04:27;98241.47;;;12.17;72.95
74544;BME280;63016;55.030;38.710;2022-10-30T01:06:53;98228.19;;;12.19;73.19
74544;BME280;63016;55.030;38.710;2022-10-30T01:09:20;98222.75;;;12.20;73.18
74544;BME280;63016;55.030;38.710;2022-10-30T01:11:46;98212.94;;;12.16;73.07
74544;BME280;63016;55.030;38.710;2022-10-30T01:14:14;98213.66;;;12.23;73.20
74544;BME280;63016;55.030;38.710;2022-10-30T01:19:43;98204.03;;;12.23;73.17
74544;BME280;63016;55.030;38.710;2022-10-30T01:25:02;98206.78;;;12.28;73.16
74544;BME280;63016;55.030;38.710;2022-10-30T01:36:25;98174.09;;;12.19;73.05
74544;BME280;63016;55.030;38.710;2022-10-30T01:39:15;98190.44;;;12.33;72.99
74544;BME280;63016;55.030;38.710;2022-10-30T01:41:43;98189.63;;;12.32;73.21
74544;BME280;63016;55.030;38.710;2022-10-30T01:44:19;98171.97;;;12.28;73.25
74544;BME280;63016;55.030;38.710;2022-10-30T01:52:34;98187.59;;;12.34;73.11
74544;BME280;63016;55.030;38.710;2022-10-30T01:55:53;98179.97;;;12.33;73.06
74544;BME280;63016;55.030;38.710;2022-10-30T01:58:23;98189.19;;;12.35;73.07
74544;BME280;63016;55.030;38.710;2022-10-30T02:00:53;98190.44;;;12.33;73.08
74544;BME280;63016;55.030;38.710;2022-10-30T02:03:21;98184.19;;;12.34;73.08
74544;BME280;63016;55.030;38.710;2022-10-30T02:05:49;98168.78;;;12.26;73.21
74544;BME280;63016;55.030;38.710;2022-10-30T02:08:16;98192.81;;;12.34;73.28
74544;BME280;63016;55.030;38.710;2022-10-30T02:10:43;98186.81;;;12.34;73.23
74544;BME280;63016;55.030;38.710;2022-10-30T02:13:10;98182.78;;;12.31;73.45
74544;BME280;63016;55.030;38.710;2022-10-30T02:15:36;98181.78;;;12.32;73.31
74544;BME280;63016;55.030;38.710;2022-10-30T02:18:02;98185.22;;;12.33;73.03
74544;BME280;63016;55.030;38.710;2022-10-30T02:20:29;98176.53;;;12.32;73.16
74544;BME280;63016;55.030;38.710;2022-10-30T02:22:55;98180.97;;;12.32;73.06
74544;BME280;63016;55.030;38.710;2022-10-30T02:25:21;98173.91;;;12.32;73.08
74544;BME280;63016;55.030;38.710;2022-10-30T02:27:46;98171.53;;;12.31;72.88
74544;BME280;63016;55.030;38.710;2022-10-30T02:30:12;98147.28;;;12.24;73.29
74544;BME280;63016;55.030;38.710;2022-10-30T02:32:38;98168.91;;;12.31;73.18
74544;BME280;63016;55.030;38.710;2022-10-30T02:35:05;98175.16;;;12.30;73.17
74544;BME280;63016;55.030;38.710;2022-10-30T02:37:30;98170.16;;;12.28;73.10
74544;BME280;63016;55.030;38.710;2022-10-30T02:40:01;98157.16;;;12.22;73.22
74544;BME280;63016;55.030;38.710;2022-10-30T02:42:27;98164.72;;;12.30;73.40
74544;BME280;63016;55.030;38.710;2022-10-30T02:44:52;98156.63;;;12.31;73.31
74544;BME280;63016;55.030;38.710;2022-10-30T02:47:18;98157.66;;;12.30;73.25
74544;BME280;63016;55.030;38.710;2022-10-30T02:49:43;98169.06;;;12.36;73.47
74544;BME280;63016;55.030;38.710;2022-10-30T02:52:09;98146.97;;;12.32;73.09
74544;BME280;63016;55.030;38.710;2022-10-30T02:54:35;98147.56;;;12.34;73.23
74544;BME280;63016;55.030;38.710;2022-10-30T02:57:01;98150.53;;;12.38;73.41
74544;BME280;63016;55.030;38.710;2022-10-30T02:59:26;98153.97;;;12.38;73.32
74544;BME280;63016;55.030;38.710;2022-10-30T03:01:52;98147.78;;;12.32;73.27
74544;BME280;63016;55.030;38.710;2022-10-30T03:04:17;98134.69;;;12.32;73.23
74544;BME280;63016;55.030;38.710;2022-10-30T03:06:43;98159.75;;;12.40;73.21
74544;BME280;63016;55.030;38.710;2022-10-30T03:09:08;98142.34;;;12.34;73.50
74544;BME280;63016;55.030;38.710;2022-10-30T03:11:34;98159.75;;;12.40;73.41
74544;BME280;63016;55.030;38.710;2022-10-30T03:13:59;98150.47;;;12.44;73.07
74544;BME280;63016;55.030;38.710;2022-10-30T03:16:26;98135.72;;;12.31;73.20
74544;BME280;63016;55.030;38.710;2022-10-30T03:18:55;98143.63;;;12.43;73.78
74544;BME280;63016;55.030;38.710;2022-10-30T03:21:23;98119.47;;;12.29;73.44
74544;BME280;63016;55.030;38.710;2022-10-30T03:23:49;98155.84;;;12.49;73.48
74544;BME280;63016;55.030;38.710;2022-10-30T03:26:16;98150.81;;;12.48;73.51
74544;BME280;63016;55.030;38.710;2022-10-30T03:28:41;98149.00;;;12.48;73.37
74544;BME280;63016;55.030;38.710;2022-10-30T03:31:10;98150.38;;;12.51;73.52
74544;BME280;63016;55.030;38.710;2022-10-30T03:33:36;98150.97;;;12.53;73.37
74544;BME280;63016;55.030;38.710;2022-10-30T03:36:04;98142.75;;;12.49;73.50
74544;BME280;63016;55.030;38.710;2022-10-30T03:38:29;98143.91;;;12.53;73.33
74544;BME280;63016;55.030;38.710;2022-10-30T03:40:55;98141.28;;;12.53;73.34
74544;BME280;63016;55.030;38.710;2022-10-30T03:43:21;98144.72;;;12.54;73.30
74544;BME280;63016;55.030;38.710;2022-10-30T03:45:52;98134.47;;;12.52;73.54
74544;BME280;63016;55.030;38.710;2022-10-30T03:48:20;98140.03;;;12.56;73.27
74544;BME280;63016;55.030;38.710;2022-10-30T03:50:46;98139.00;;;12.57;73.20
74544;BME280;63016;55.030;38.710;2022-10-30T03:53:12;98117.03;;;12.46;73.19
74544;BME280;63016;55.030;38.710;2022-10-30T03:55:38;98123.06;;;12.47;72.75
74544;BME280;63016;55.030;38.710;2022-10-30T03:58:05;98143.81;;;12.60;73.24
74544;BME280;63016;55.030;38.710;2022-10-30T04:00:31;98144.25;;;12.57;73.35
74544;BME280;63016;55.030;38.710;2022-10-30T04:02:57;98145.41;;;12.61;73.26
74544;BME280;63016;55.030;38.710;2022-10-30T04:05:24;98121.59;;;12.51;73.13
74544;BME280;63016;55.030;38.710;2022-10-30T04:07:58;98144.19;;;12.64;73.13
74544;BME280;63016;55.030;38.710;2022-10-30T04:10:25;98110.63;;;12.42;73.07
74544;BME280;63016;55.030;38.710;2022-10-30T04:12:51;98132.19;;;12.56;73.09
74544;BME280;63016;55.030;38.710;2022-10-30T04:15:17;98136.19;;;12.58;73.19
74544;BME280;63016;55.030;38.710;2022-10-30T04:17:49;98144.25;;;12.57;73.15
74544;BME280;63016;55.030;38.710;2022-10-30T04:20:16;98121.09;;;12.42;73.02
74544;BME280;63016;55.030;38.710;2022-10-30T04:22:42;98141.06;;;12.55;73.01
74544;BME280;63016;55.030;38.710;2022-10-30T04:25:08;98112.91;;;12.39;72.81
74544;BME280;63016;55.030;38.710;2022-10-30T04:27:41;98152.69;;;12.59;72.95
74544;BME280;63016;55.030;38.710;2022-10-30T04:30:09;98150.31;;;12.57;72.83
74544;BME280;63016;55.030;38.710;2022-10-30T04:32:35;98153.50;;;12.59;73.05
74544;BME280;63016;55.030;38.710;2022-10-30T04:35:00;98152.91;;;12.57;73.15
74544;BME280;63016;55.030;38.710;2022-10-30T04:37:28;98132.16;;;12.44;72.73
74544;BME280;63016;55.030;38.710;2022-10-30T04:39:53;98149.16;;;12.53;72.38
74544;BME280;63016;55.030;38.710;2022-10-30T04:42:19;98136.84;;;12.54;72.21
74544;BME280;63016;55.030;38.710;2022-10-30T04:44:44;98150.50;;;12.56;72.42
74544;BME280;63016;55.030;38.710;2022-10-30T04:47:09;98148.50;;;12.58;72.37
74544;BME280;63016;55.030;38.710;2022-10-30T04:49:35;98156.53;;;12.56;72.37
74544;BME280;63016;55.030;38.710;2022-10-30T04:52:00;98140.56;;;12.46;72.36
74544;BME280;63016;55.030;38.710;2022-10-30T04:54:29;98153.66;;;12.46;72.22
74544;BME280;63016;55.030;38.710;2022-10-30T04:56:54;98165.63;;;12.54;72.31
74544;BME280;63016;55.030;38.710;2022-10-30T04:59:20;98149.31;;;12.40;72.36
74544;BME280;63016;55.030;38.710;2022-10-30T05:01:45;98144.34;;;12.32;71.94
74544;BME280;63016;55.030;38.710;2022-10-30T05:04:11;98164.56;;;12.43;71.72
74544;BME280;63016;55.030;38.710;2022-10-30T05:06:37;98167.47;;;12.35;72.09
74544;BME280;63016;55.030;38.710;2022-10-30T05:09:02;98169.66;;;12.38;71.69
74544;BME280;63016;55.030;38.710;2022-10-30T05:11:28;98168.50;;;12.34;71.89
74544;BME280;63016;55.030;38.710;2022-10-30T05:13:54;98172.47;;;12.37;72.14
74544;BME280;63016;55.030;38.710;2022-10-30T05:16:20;98173.91;;;12.32;71.81
74544;BME280;63016;55.030;38.710;2022-10-30T05:18:45;98156.13;;;12.23;71.96
74544;BME280;63016;55.030;38.710;2022-10-30T05:21:10;98178.72;;;12.35;72.13
74544;BME280;63016;55.030;38.710;2022-10-30T05:23:36;98156.72;;;12.25;72.03
74544;BME280;63016;55.030;38.710;2022-10-30T05:26:02;98165.09;;;12.33;72.33
74544;BME280;63016;55.030;38.710;2022-10-30T05:28:27;98170.75;;;12.30;71.90
74544;BME280;63016;55.030;38.710;2022-10-30T05:30:53;98154.34;;;12.23;71.86
74544;BME280;63016;55.030;38.710;2022-10-30T05:33:19;98177.13;;;12.34;71.88
74544;BME280;63016;55.030;38.710;2022-10-30T05:35:44;98151.63;;;12.12;71.58
74544;BME280;63016;55.030;38.710;2022-10-30T05:38:10;98178.59;;;12.30;71.62
74544;BME280;63016;55.030;38.710;2022-10-30T05:40:36;98175.59;;;12.27;72.04
74544;BME280;63016;55.030;38.710;2022-10-30T05:43:02;98160.06;;;12.14;72.09
74544;BME280;63016;55.030;38.710;2022-10-30T05:45:27;98185.25;;;12.26;71.52
74544;BME280;63016;55.030;38.710;2022-10-30T05:47:57;98186.50;;;12.24;71.60
74544;BME280;63016;55.030;38.710;2022-10-30T05:50:24;98184.75;;;12.18;71.75
74544;BME280;63016;55.030;38.710;2022-10-30T05:52:56;98183.75;;;12.19;71.61
74544;BME280;63016;55.030;38.710;2022-10-30T05:55:22;98196.81;;;12.19;71.42
74544;BME280;63016;55.030;38.710;2022-10-30T05:57:48;98183.44;;;12.08;71.78
74544;BME280;63016;55.030;38.710;2022-10-30T06:00:15;98188.16;;;12.18;71.66
74544;BME280;63016;55.030;38.710;2022-10-30T06:02:40;98196.44;;;12.15;71.53
74544;BME280;63016;55.030;38.710;2022-10-30T06:05:06;98199.06;;;12.15;71.72
74544;BME280;63016;55.030;38.710;2022-10-30T06:07:32;98183.44;;;12.08;71.93
74544;BME280;63016;55.030;38.710;2022-10-30T06:09:57;98184.19;;;12.16;71.95
74544;BME280;63016;55.030;38.710;2022-10-30T06:12:23;98196.22;;;12.17;71.34
74544;BME280;63016;55.030;38.710;2022-10-30T06:14:48;98187.81;;;12.15;71.39
74544;BME280;63016;55.030;38.710;2022-10-30T06:17:14;98184.81;;;12.11;71.71
74544;BME280;63016;55.030;38.710;2022-10-30T06:19:39;98197.47;;;12.14;71.62
74544;BME280;63016;55.030;38.710;2022-10-30T06:22:05;98184.41;;;12.14;71.92
74544;BME280;63016;55.030;38.710;2022-10-30T06:24:30;98197.81;;;12.18;71.50
74544;BME280;63016;55.030;38.710;2022-10-30T06:26:56;98189.41;;;12.16;71.51
74544;BME280;63016;55.030;38.710;2022-10-30T06:29:21;98195.00;;;12.19;71.65
74544;BME280;63016;55.030;38.710;2022-10-30T06:31:47;98197.41;;;12.21;71.62
74544;BME280;63016;55.030;38.710;2022-10-30T06:34:12;98197.97;;;12.23;71.31
74544;BME280;63016;55.030;38.710;2022-10-30T06:36:38;98189.13;;;12.24;71.30
74544;BME280;63016;55.030;38.710;2022-10-30T06:39:03;98195.94;;;12.25;71.69
74544;BME280;63016;55.030;38.710;2022-10-30T06:41:28;98173.22;;;12.25;71.92
74544;BME280;63016;55.030;38.710;2022-10-30T06:43:54;98157.47;;;12.14;71.76
74544;BME280;63016;55.030;38.710;2022-10-30T06:46:19;98187.22;;;12.31;71.42
74544;BME280;63016;55.030;38.710;2022-10-30T06:48:45;98186.19;;;12.32;71.36
74544;BME280;63016;55.030;38.710;2022-10-30T06:51:13;98175.16;;;12.30;71.29
74544;BME280;63016;55.030;38.710;2022-10-30T06:53:39;98178.34;;;12.32;71.58
74544;BME280;63016;55.030;38.710;2022-10-30T06:56:05;98166.31;;;12.31;71.36
74544;BME280;63016;55.030;38.710;2022-10-30T06:58:30;98167.47;;;12.35;71.31
74544;BME280;63016;55.030;38.710;2022-10-30T07:00:58;98177.13;;;12.34;71.22
74544;BME280;63016;55.030;38.710;2022-10-30T07:03:25;98173.50;;;12.35;71.11
74544;BME280;63016;55.030;38.710;2022-10-30T07:05:50;98168.25;;;12.35;71.10
74544;BME280;63016;55.030;38.710;2022-10-30T07:08:16;98168.50;;;12.34;71.18
74544;BME280;63016;55.030;38.710;2022-10-30T07:10:42;98156.22;;;12.34;71.31
74544;BME280;63016;55.030;38.710;2022-10-30T07:13:07;98157.81;;;12.35;71.38
74544;BME280;63016;55.030;38.710;2022-10-30T07:15:33;98139.34;;;12.30;71.53
74544;BME280;63016;55.030;38.710;2022-10-30T07:18:00;98162.28;;;12.47;71.20
74544;BME280;63016;55.030;38.710;2022-10-30T07:20:31;98166.72;;;12.46;70.77
74544;BME280;63016;55.030;38.710;2022-10-30T07:22:57;98167.31;;;12.48;71.08
74544;BME280;63016;55.030;38.710;2022-10-30T07:25:23;98164.72;;;12.48;71.23
74544;BME280;63016;55.030;38.710;2022-10-30T07:27:51;98163.69;;;12.49;70.62
74544;BME280;63016;55.030;38.710;2022-10-30T07:30:19;98159.66;;;12.47;70.84
74544;BME280;63016;55.030;38.710;2022-10-30T07:32:45;98175.38;;;12.47;70.41
74544;BME280;63016;55.030;38.710;2022-10-30T07:35:12;98171.63;;;12.43;70.42
74544;BME280;63016;55.030;38.710;2022-10-30T07:37:38;98199.13;;;12.45;69.87
74544;BME280;63016;55.030;38.710;2022-10-30T07:40:05;98173.25;;;12.37;70.17
74544;BME280;63016;55.030;38.710;2022-10-30T07:42:32;98177.50;;;12.38;70.12
74544;BME280;63016;55.030;38.710;2022-10-30T07:44:58;98171.09;;;12.34;70.46
74544;BME280;63016;55.030;38.710;2022-10-30T07:47:23;98174.75;;;12.33;70.26
74544;BME280;63016;55.030;38.710;2022-10-30T07:49:49;98173.13;;;12.32;70.22
74544;BME280;63016;55.030;38.710;2022-10-30T07:52:15;98166.72;;;12.28;70.27
74544;BME280;63016;55.030;38.710;2022-10-30T07:54:41;98172.41;;;12.25;70.02
74544;BME280;63016;55.030;38.710;2022-10-30T07:57:06;98180.47;;;12.23;70.03
74544;BME280;63016;55.030;38.710;2022-10-30T07:59:32;98166.28;;;12.13;70.05
74544;BME280;63016;55.030;38.710;2022-10-30T08:01:57;98186.94;;;12.21;70.27
74544;BME280;63016;55.030;38.710;2022-10-30T08:04:25;98162.88;;;12.12;70.19
74544;BME280;63016;55.030;38.710;2022-10-30T08:06:51;98165.72;;;12.11;69.92
74544;BME280;63016;55.030;38.710;2022-10-30T08:09:18;98167.53;;;12.10;70.38
74544;BME280;63016;55.030;38.710;2022-10-30T08:11:44;98154.91;;;12.07;70.59
74544;BME280;63016;55.030;38.710;2022-10-30T08:14:10;98161.88;;;12.13;70.35
74544;BME280;63016;55.030;38.710;2022-10-30T08:16:35;98163.25;;;12.16;70.27
74544;BME280;63016;55.030;38.710;2022-10-30T08:19:01;98155.19;;;12.17;70.79
74544;BME280;63016;55.030;38.710;2022-10-30T08:21:27;98154.75;;;12.20;70.65
74544;BME280;63016;55.030;38.710;2022-10-30T08:23:52;98141.53;;;12.15;70.18
74544;BME280;63016;55.030;38.710;2022-10-30T08:26:18;98148.50;;;12.21;70.29
74544;BME280;63016;55.030;38.710;2022-10-30T08:28:44;98154.34;;;12.23;70.59
74544;BME280;63016;55.030;38.710;2022-10-30T08:31:10;98141.47;;;12.22;70.73
74544;BME280;63016;55.030;38.710;2022-10-30T08:33:36;98150.03;;;12.29;70.56
74544;BME280;63016;55.030;38.710;2022-10-30T08:36:01;98139.13;;;12.32;70.69
74544;BME280;63016;55.030;38.710;2022-10-30T08:38:27;98143.38;;;12.33;70.12
74544;BME280;63016;55.030;38.710;2022-10-30T08:40:53;98145.75;;;12.34;69.80
74544;BME280;63016;55.030;38.710;2022-10-30T08:43:19;98122.88;;;12.30;70.19
74544;BME280;63016;55.030;38.710;2022-10-30T08:45:46;98138.03;;;12.40;70.24
74544;BME280;63016;55.030;38.710;2022-10-30T08:48:14;98129.16;;;12.41;70.19
74544;BME280;63016;55.030;38.710;2022-10-30T08:50:40;98145.22;;;12.44;69.93
74544;BME280;63016;55.030;38.710;2022-10-30T08:53:09;98141.38;;;12.47;70.15
74544;BME280;63016;55.030;38.710;2022-10-30T08:55:35;98135.34;;;12.46;69.95
74544;BME280;63016;55.030;38.710;2022-10-30T08:58:01;98142.88;;;12.54;70.08
74544;BME280;63016;55.030;38.710;2022-10-30T09:00:27;98145.06;;;12.57;69.86
74544;BME280;63016;55.030;38.710;2022-10-30T09:02:53;98135.41;;;12.58;69.84
74544;BME280;63016;55.030;38.710;2022-10-30T09:05:19;98127.75;;;12.56;69.78
74544;BME280;63016;55.030;38.710;2022-10-30T09:07:45;98137.22;;;12.57;69.28
74544;BME280;63016;55.030;38.710;2022-10-30T09:10:11;98138.22;;;12.56;69.06
74544;BME280;63016;55.030;38.710;2022-10-30T09:12:40;98141.63;;;12.57;69.37
74544;BME280;63016;55.030;38.710;2022-10-30T09:15:06;98136.63;;;12.55;69.19
74544;BME280;63016;55.030;38.710;2022-10-30T09:17:32;98140.03;;;12.56;69.03
74544;BME280;63016;55.030;38.710;2022-10-30T09:19:57;98131.41;;;12.55;69.38
74544;BME280;63016;55.030;38.710;2022-10-30T09:22:23;98137.22;;;12.57;69.34
74544;BME280;63016;55.030;38.710;2022-10-30T09:24:49;98133.78;;;12.57;68.83
74544;BME280;63016;55.030;38.710;2022-10-30T09:27:14;98135.59;;;12.56;68.47
74544;BME280;63016;55.030;38.710;2022-10-30T09:29:40;98140.69;;;12.51;68.42
74544;BME280;63016;55.030;38.710;2022-10-30T09:32:06;98132.94;;;12.45;67.99
74544;BME280;63016;55.030;38.710;2022-10-30T09:34:37;98141.47;;;12.40;68.16
74544;BME280;63016;55.030;38.710;2022-10-30T09:37:04;98150.53;;;12.38;67.84
74544;BME280;63016;55.030;38.710;2022-10-30T09:39:30;98144.16;;;12.33;68.04
74544;BME280;63016;55.030;38.710;2022-10-30T09:55:38;98135.72;;;12.13;67.64
74544;BME280;63016;55.030;38.710;2022-10-30T10:01:21;98132.41;;;12.06;68.05
74544;BME280;63016;55.030;38.710;2022-10-30T10:06:24;98107.13;;;12.00;67.47
74544;BME280;63016;55.030;38.710;2022-10-30T10:09:03;98104.56;;;11.93;67.62
74544;BME280;63016;55.030;38.710;2022-10-30T10:11:40;98103.59;;;11.94;66.99
74544;BME280;63016;55.030;38.710;2022-10-30T10:14:20;98101.03;;;11.88;67.05
74544;BME280;63016;55.030;38.710;2022-10-30T10:16:51;98095.00;;;11.87;67.73
74544;BME280;63016;55.030;38.710;2022-10-30T10:21:57;98103.25;;;11.84;67.48
74544;BME280;63016;55.030;38.710;2022-10-30T10:24:29;98105.88;;;11.84;67.30
74544;BME280;63016;55.030;38.710;2022-10-30T10:35:46;98105.03;;;11.90;67.95
74544;BME280;63016;55.030;38.710;2022-10-30T10:48:53;98093.97;;;11.88;67.36
74544;BME280;63016;55.030;38.710;2022-10-30T10:51:36;98097.63;;;11.87;67.21
74544;BME280;63016;55.030;38.710;2022-10-30T10:54:11;98106.47;;;11.86;67.19
74544;BME280;63016;55.030;38.710;2022-10-30T10:56:41;98090.81;;;11.79;67.74
74544;BME280;63016;55.030;38.710;2022-10-30T10:59:22;98107.09;;;11.81;67.42
74544;BME280;63016;55.030;38.710;2022-10-30T11:01:57;98092.25;;;11.82;67.58
74544;BME280;63016;55.030;38.710;2022-10-30T11:04:40;98087.41;;;11.79;67.10
74544;BME280;63016;55.030;38.710;2022-10-30T11:07:22;98060.28;;;11.62;67.52
74544;BME280;63016;55.030;38.710;2022-10-30T11:09:55;98075.81;;;11.75;67.65
74544;BME280;63016;55.030;38.710;2022-10-30T11:12:39;98083.66;;;11.75;67.95
74544;BME280;63016;55.030;38.710;2022-10-30T11:15:20;98078.84;;;11.72;67.13
74544;BME280;63016;55.030;38.710;2022-10-30T11:18:05;98082.34;;;11.66;67.69
74544;BME280;63016;55.030;38.710;2022-10-30T11:21:00;98087.75;;;11.64;67.63
74544;BME280;63016;55.030;38.710;2022-10-30T11:23:45;98085.81;;;11.59;67.60
74544;BME280;63016;55.030;38.710;2022-10-30T11:28:55;98078.84;;;11.53;67.36
74544;BME280;63016;55.030;38.710;2022-10-30T11:31:29;98087.97;;;11.44;67.56
74544;BME280;63016;55.030;38.710;2022-10-30T11:36:52;98084.78;;;11.42;67.03
74544;BME280;63016;55.030;38.710;2022-10-30T11:39:31;98066.53;;;11.36;66.84
74544;BME280;63016;55.030;38.710;2022-10-30T11:47:03;98119.31;;;11.19;66.08
74544;BME280;63016;55.030;38.710;2022-10-30T11:52:04;98087.06;;;11.07;65.95
74544;BME280;63016;55.030;38.710;2022-10-30T11:54:35;98093.94;;;11.01;66.17
74544;BME280;63016;55.030;38.710;2022-10-30T11:57:02;98101.59;;;10.96;66.55
74544;BME280;63016;55.030;38.710;2022-10-30T11:59:29;98102.03;;;10.93;66.02
74544;BME280;63016;55.030;38.710;2022-10-30T12:02:07;98084.66;;;10.80;65.78
74544;BME280;63016;55.030;38.710;2022-10-30T12:04:43;98096.28;;;10.85;65.84
74544;BME280;63016;55.030;38.710;2022-10-30T12:07:31;98094.50;;;10.78;65.98
74544;BME280;63016;55.030;38.710;2022-10-30T12:09:57;98100.78;;;10.71;65.23
74544;BME280;63016;55.030;38.710;2022-10-30T12:12:28;98112.47;;;10.62;65.97
74544;BME280;63016;55.030;38.710;2022-10-30T12:15:13;98122.31;;;10.60;65.50
74544;BME280;63016;55.030;38.710;2022-10-30T12:17:53;98115.91;;;10.55;65.68
74544;BME280;63016;55.030;38.710;2022-10-30T12:20:20;98118.34;;;10.50;65.58
74544;BME280;63016;55.030;38.710;2022-10-30T12:22:46;98134.00;;;10.44;65.38
74544;BME280;63016;55.030;38.710;2022-10-30T12:25:23;98128.03;;;10.37;64.76
74544;BME280;63016;55.030;38.710;2022-10-30T12:27:59;98147.28;;;10.29;64.98
74544;BME280;63016;55.030;38.710;2022-10-30T12:30:26;98139.50;;;10.16;64.71
74544;BME280;63016;55.030;38.710;2022-10-30T12:33:11;98130.50;;;10.05;64.50
74544;BME280;63016;55.030;38.710;2022-10-30T12:35:49;98139.75;;;9.94;64.84
74544;BME280;63016;55.030;38.710;2022-10-30T12:43:44;98148.63;;;9.67;64.85
74544;BME280;63016;55.030;38.710;2022-10-30T12:49:15;98145.84;;;9.55;64.09
74544;BME280;63016;55.030;38.710;2022-10-30T12:55:08;98147.25;;;9.44;66.05
74544;BME280;63016;55.030;38.710;2022-10-30T12:57:36;98151.84;;;9.29;64.14
74544;BME280;63016;55.030;38.710;2022-10-30T13:00:14;98149.41;;;9.08;64.25
74544;BME280;63016;55.030;38.710;2022-10-30T13:05:24;98178.03;;;9.01;64.67
74544;BME280;63016;55.030;38.710;2022-10-30T13:07:57;98160.59;;;8.88;64.60
74544;BME280;63016;55.030;38.710;2022-10-30T13:10:38;98154.59;;;8.81;64.05
74544;BME280;63016;55.030;38.710;2022-10-30T13:13:23;98162.78;;;8.78;64.77
74544;BME280;63016;55.030;38.710;2022-10-30T13:15:55;98167.38;;;8.76;64.10
74544;BME280;63016;55.030;38.710;2022-10-30T13:18:24;98166.38;;;8.70;64.95
74544;BME280;63016;55.030;38.710;2022-10-30T13:21:18;98178.94;;;8.67;64.53
74544;BME280;63016;55.030;38.710;2022-10-30T13:24:01;98169.34;;;8.61;64.83
74544;BME280;63016;55.030;38.710;2022-10-30T13:26:44;98185.50;;;8.56;64.69
74544;BME280;63016;55.030;38.710;2022-10-30T13:31:59;98186.06;;;8.45;65.10
74544;BME280;63016;55.030;38.710;2022-10-30T13:34:38;98182.97;;;8.35;64.91
74544;BME280;63016;55.030;38.710;2022-10-30T13:39:42;98188.53;;;8.25;64.41
74544;BME280;63016;55.030;38.710;2022-10-30T13:47:53;98196.06;;;8.13;64.66
74544;BME280;63016;55.030;38.710;2022-10-30T13:53:24;98200.25;;;8.08;63.64
74544;BME280;63016;55.030;38.710;2022-10-30T13:55:54;98197.41;;;8.03;64.82
74544;BME280;63016;55.030;38.710;2022-10-30T13:58:35;98208.16;;;7.99;64.50
74544;BME280;63016;55.030;38.710;2022-10-30T14:01:15;98189.34;;;7.91;65.16
74544;BME280;63016;55.030;38.710;2022-10-30T14:09:34;98195.94;;;7.93;64.99
74544;BME280;63016;55.030;38.710;2022-10-30T14:11:39;98202.13;;;7.92;64.87
74544;BME280;63016;55.030;38.710;2022-10-30T14:14:25;98200.50;;;7.91;64.73
74544;BME280;63016;55.030;38.710;2022-10-30T14:17:15;98198.69;;;7.85;65.01
74544;BME280;63016;55.030;38.710;2022-10-30T14:22:32;98208.28;;;7.85;64.93
74544;BME280;63016;55.030;38.710;2022-10-30T14:24:59;98202.44;;;7.83;65.45
74544;BME280;63016;55.030;38.710;2022-10-30T14:27:28;98201.03;;;7.80;65.09
74544;BME280;63016;55.030;38.710;2022-10-30T14:29:54;98188.84;;;7.74;65.17
74544;BME280;63016;55.030;38.710;2022-10-30T14:37:14;98192.59;;;7.71;64.86
74544;BME280;63016;55.030;38.710;2022-10-30T14:39:44;98196.19;;;7.70;64.61
74544;BME280;63016;55.030;38.710;2022-10-30T14:45:37;98198.34;;;7.67;65.34
74544;BME280;63016;55.030;38.710;2022-10-30T14:48:17;98190.56;;;7.67;65.24
74544;BME280;63016;55.030;38.710;2022-10-30T14:51:04;98197.75;;;7.65;65.47
74544;BME280;63016;55.030;38.710;2022-10-30T14:53:58;98184.13;;;7.63;64.89
74544;BME280;63016;55.030;38.710;2022-10-30T14:56:46;98188.72;;;7.61;64.83
74544;BME280;63016;55.030;38.710;2022-10-30T15:01:52;98184.91;;;7.57;64.87